Mercer, WI

7:57 AM CDT on May 27, 2017 (GMT -0500)
Mercer Public Library, Iron County, WI | | Change Station
Active Advisory: Special Statement Active Notice: Public Information Statement

Elev 1598 ft 46.17 °N, 90.06 °W | Updated 10 seconds ago

Overcast
Overcast
56.7 °F
Feels Like 56.7 °F
N
0.0
Wind Variable Wind from SSW
Gusts 0.0 mph

Today
High -- | Low -- °F
--% Chance of Precip.
Yesterday
High -- | Low -- °F
Precip. -- in
Pressure 29.85 in
Visibility 7.0 miles
Clouds Overcast 300 ft
Dew Point 56 °F
Humidity 98%
Rainfall 0.00 in
Snow Depth Not available.
5:15 AM 8:39 PM
Waxing Crescent, 4% visible
METAR KD25 271235Z AUTO 21004KT 7SM OVC003 13/13 A2985 RMK AO2 T01310131
Pressure 29.85 in
Visibility 7.0 miles
Clouds Overcast 300 ft
Dew Point 56 °F
Humidity 98%
Rainfall 0.00 in
Snow Depth Not available.
5:15 AM 8:39 PM
Waxing Crescent, 4% visible
METAR KD25 271235Z AUTO 21004KT 7SM OVC003 13/13 A2985 RMK AO2 T01310131

Get Your Daily Forecast Email!

Thanks for signing up!

Be on the lookout for a verification email in your inbox.

You'll start receiving severe weather alerts in your inbox..

×

10-Day Weather Forecast

Almanac

Astronomy

May. 27, 2017 Rise Set
Actual Time
Civil Twilight
Nautical Twilight
Astronomical Twilight
Moon
Length of Visible Light
Length of Day
Tomorrow will be .
, % of the Moon is Illuminated

Today's Extremes

State Highs State Lows

Community

WunderPhotos

Category 6

Welcome to Category 6. This is the collective home for Weather Underground's featured writeups by Dr. Jeff Masters (right), Bob Henson (left), Chris Burt, and other regular contributors.

Nearby

Air Quality

  Air Quality AQ Index Pollutant
Not available.

Snow Depth

Station Depth Elevation

Earthquake Activity

City Distance Mag. Time & Date
Minimum magnitude displayed is 2.5.

Coastal Water Temperatures

Place Temperature

Stations

Nearby Weather Stations

Station Location Temp. Windchill Dew Point Humidity Wind Precip. Elev Updated Type
                   

Watches & Warnings

Special Statement
Issued: 6:27 AM CDT May. 27, 2017 – National Weather Service

... Areas of fog this morning...

Areas of fog, some dense reducing the visibility to a quarter mile
or less, were occurring across portions of northwest Wisconsin
this morning. Some areas that were seeing fog include Hayward,
Park falls, Butternut, Glidden, Mercer, and Prentice. The fog will
lift between 8 am and 9 am.

Be alert for rapidly changing visibilities this morning and allow
extra time to reach your destination.


Melde


627 am CDT Sat may 27 2017

... Areas of fog this morning...

Areas of fog, some dense reducing the visibility to a quarter mile
or less, were occurring across portions of northwest Wisconsin
this morning. Some areas that were seeing fog include Hayward,
Park falls, Butternut, Glidden, Mercer, and Prentice. The fog will
lift between 8 am and 9 am.

Be alert for rapidly changing visibilities this morning and allow
extra time to reach your destination.


Melde